DM4 weather

CLOSED Baie Verte Water Aerodrome
Baie Verte, Newfoundland and Labrador, Canada

Public forecast

Using degrees Celsius for public forecast. Weather courtesy of forecast.io.

METAR (pilot weather report)

Closest report is Deer Lake Airport, 64.3 nm (119.1 km) SW. Retrieved 2019/07/19 11:00 UTC (38 minutes ago):

CYDF 191100Z 23005KT 210V270 15SM FEW062 FEW260 18/10 A2973 RMK SC1CI1 SLP069 DENSITY ALT 700FT

TAF (pilot weather forecast)

Closest forecast is Deer Lake Airport, 64.3 nm (119.1 km) SW. Retrieved 2019/07/19 08:39 UTC (3 hours ago):

TAF CYDF 190738Z 1908/1920 23010KT P6SM FEW050 BECMG 1912/1914 25015G25KT RMK NXT FCST BY 191400Z